Cameron Village, North Carolina
Current Conditions -  °F | °C
As of 8:51 AM on Wednesday 26 Nov 2014 (Local Time) from KRDU Reporting Station
Light Rain Light Rain  
Wind Chill: 42°   Ceiling: 700
Heat Index: 45°   Visibility: 2mi
Dew Point: 42°   Wind: 6mph
Humidity: 90%   Direction: NA
Pressure: 29.97"   Gusts: 20mph
Location:  35.7907°N, 78.6542°W
Report Text: KRDU 261351Z VRB05G17KT 2SM -RA BR BKN007 BKN015 OVC065 07/06 A2997 RMK AO2 PK WND 04032/1303 SFC VIS 3 SLP148 P0008 T00720056
Loading
Personal Weather Stations






























Interactive Weather Map New forecast layout! Learn more

10-Day Weather Forecast

Advertisements
Track Severe Weather on mobile